sensor_id;sensor_type;location;lat;lon;timestamp;temperature;humidity
53294;DHT22;39181;53.440;5.644;2024-01-27T00:01:11;4.80;99.90
53294;DHT22;39181;53.440;5.644;2024-01-27T00:03:36;4.70;99.90
53294;DHT22;39181;53.440;5.644;2024-01-27T00:06:02;5.10;99.90
53294;DHT22;39181;53.440;5.644;2024-01-27T00:08:28;4.80;99.90
53294;DHT22;39181;53.440;5.644;2024-01-27T00:10:53;5.20;99.90
53294;DHT22;39181;53.440;5.644;2024-01-27T00:13:19;5.30;99.90
53294;DHT22;39181;53.440;5.644;2024-01-27T00:15:45;5.10;99.90
53294;DHT22;39181;53.440;5.644;2024-01-27T00:18:10;5.20;99.90
53294;DHT22;39181;53.440;5.644;2024-01-27T00:20:36;5.00;99.90
53294;DHT22;39181;53.440;5.644;2024-01-27T00:23:03;5.10;99.90
53294;DHT22;39181;53.440;5.644;2024-01-27T00:25:29;4.70;99.90
53294;DHT22;39181;53.440;5.644;2024-01-27T00:27:54;4.70;99.90
53294;DHT22;39181;53.440;5.644;2024-01-27T00:30:20;4.90;99.90
53294;DHT22;39181;53.440;5.644;2024-01-27T00:32:45;5.00;99.90
53294;DHT22;39181;53.440;5.644;2024-01-27T00:35:11;5.00;99.90
53294;DHT22;39181;53.440;5.644;2024-01-27T00:37:40;5.00;99.90
53294;DHT22;39181;53.440;5.644;2024-01-27T00:40:12;4.60;99.90
53294;DHT22;39181;53.440;5.644;2024-01-27T00:42:38;4.90;99.90
53294;DHT22;39181;53.440;5.644;2024-01-27T00:45:04;4.80;99.90
53294;DHT22;39181;53.440;5.644;2024-01-27T00:47:30;4.70;99.90
53294;DHT22;39181;53.440;5.644;2024-01-27T00:49:56;4.70;99.90
53294;DHT22;39181;53.440;5.644;2024-01-27T00:52:22;4.30;99.90
53294;DHT22;39181;53.440;5.644;2024-01-27T00:54:48;4.50;99.90
53294;DHT22;39181;53.440;5.644;2024-01-27T00:57:13;4.20;99.90
53294;DHT22;39181;53.440;5.644;2024-01-27T00:59:39;4.20;99.90
53294;DHT22;39181;53.440;5.644;2024-01-27T01:02:04;4.40;99.90
53294;DHT22;39181;53.440;5.644;2024-01-27T01:04:30;4.60;99.90
53294;DHT22;39181;53.440;5.644;2024-01-27T01:06:56;4.20;99.90
53294;DHT22;39181;53.440;5.644;2024-01-27T01:09:21;4.50;99.90
53294;DHT22;39181;53.440;5.644;2024-01-27T01:11:47;4.50;99.90
53294;DHT22;39181;53.440;5.644;2024-01-27T01:14:13;4.60;99.90
53294;DHT22;39181;53.440;5.644;2024-01-27T01:16:39;4.40;99.90
53294;DHT22;39181;53.440;5.644;2024-01-27T01:19:05;4.70;99.90
53294;DHT22;39181;53.440;5.644;2024-01-27T01:21:31;4.20;99.90
53294;DHT22;39181;53.440;5.644;2024-01-27T01:23:56;4.20;99.90
53294;DHT22;39181;53.440;5.644;2024-01-27T01:26:23;4.40;99.90
53294;DHT22;39181;53.440;5.644;2024-01-27T01:28:50;4.10;99.90
53294;DHT22;39181;53.440;5.644;2024-01-27T01:31:16;4.10;99.90
53294;DHT22;39181;53.440;5.644;2024-01-27T01:33:42;4.00;99.90
53294;DHT22;39181;53.440;5.644;2024-01-27T01:36:08;4.10;99.90
53294;DHT22;39181;53.440;5.644;2024-01-27T01:38:34;4.10;99.90
53294;DHT22;39181;53.440;5.644;2024-01-27T01:41:00;4.00;99.90
53294;DHT22;39181;53.440;5.644;2024-01-27T01:43:26;4.30;99.90
53294;DHT22;39181;53.440;5.644;2024-01-27T01:45:52;4.10;99.90
53294;DHT22;39181;53.440;5.644;2024-01-27T01:48:19;3.90;99.90
53294;DHT22;39181;53.440;5.644;2024-01-27T01:50:46;4.50;99.90
53294;DHT22;39181;53.440;5.644;2024-01-27T01:53:13;4.50;99.90
53294;DHT22;39181;53.440;5.644;2024-01-27T01:55:40;4.00;99.90
53294;DHT22;39181;53.440;5.644;2024-01-27T01:58:06;4.10;99.90
53294;DHT22;39181;53.440;5.644;2024-01-27T02:00:32;4.20;99.90
53294;DHT22;39181;53.440;5.644;2024-01-27T02:02:58;4.50;99.90
53294;DHT22;39181;53.440;5.644;2024-01-27T02:05:24;4.30;99.90
53294;DHT22;39181;53.440;5.644;2024-01-27T02:07:50;4.50;99.90
53294;DHT22;39181;53.440;5.644;2024-01-27T02:10:17;3.90;99.90
53294;DHT22;39181;53.440;5.644;2024-01-27T02:12:43;4.10;99.90
53294;DHT22;39181;53.440;5.644;2024-01-27T02:15:12;3.90;99.90
53294;DHT22;39181;53.440;5.644;2024-01-27T02:17:39;3.90;99.90
53294;DHT22;39181;53.440;5.644;2024-01-27T02:20:06;4.30;99.90
53294;DHT22;39181;53.440;5.644;2024-01-27T02:22:33;3.90;99.90
53294;DHT22;39181;53.440;5.644;2024-01-27T02:24:58;3.90;99.90
53294;DHT22;39181;53.440;5.644;2024-01-27T02:27:24;3.90;99.90
53294;DHT22;39181;53.440;5.644;2024-01-27T02:29:50;3.90;99.90
53294;DHT22;39181;53.440;5.644;2024-01-27T02:32:19;4.00;99.90
53294;DHT22;39181;53.440;5.644;2024-01-27T02:34:44;3.70;99.90
53294;DHT22;39181;53.440;5.644;2024-01-27T02:37:10;3.70;99.90
53294;DHT22;39181;53.440;5.644;2024-01-27T02:39:36;4.00;99.90
53294;DHT22;39181;53.440;5.644;2024-01-27T02:42:02;4.30;99.90
53294;DHT22;39181;53.440;5.644;2024-01-27T02:44:28;3.70;99.90
53294;DHT22;39181;53.440;5.644;2024-01-27T02:46:53;4.20;99.90
53294;DHT22;39181;53.440;5.644;2024-01-27T02:49:19;3.70;99.90
53294;DHT22;39181;53.440;5.644;2024-01-27T02:51:45;3.90;99.90
53294;DHT22;39181;53.440;5.644;2024-01-27T02:54:10;3.70;99.90
53294;DHT22;39181;53.440;5.644;2024-01-27T02:56:36;3.80;99.90
53294;DHT22;39181;53.440;5.644;2024-01-27T02:59:02;4.20;99.90
53294;DHT22;39181;53.440;5.644;2024-01-27T03:01:27;4.20;99.90
53294;DHT22;39181;53.440;5.644;2024-01-27T03:03:53;3.60;99.90
53294;DHT22;39181;53.440;5.644;2024-01-27T03:06:18;3.80;99.90
53294;DHT22;39181;53.440;5.644;2024-01-27T03:08:44;4.20;99.90
53294;DHT22;39181;53.440;5.644;2024-01-27T03:11:10;4.00;99.90
53294;DHT22;39181;53.440;5.644;2024-01-27T03:13:36;3.60;99.90
53294;DHT22;39181;53.440;5.644;2024-01-27T03:16:02;3.90;99.90
53294;DHT22;39181;53.440;5.644;2024-01-27T03:18:27;4.20;99.90
53294;DHT22;39181;53.440;5.644;2024-01-27T03:20:53;4.20;99.90
53294;DHT22;39181;53.440;5.644;2024-01-27T03:23:22;3.80;99.90
53294;DHT22;39181;53.440;5.644;2024-01-27T03:25:47;3.70;99.90
53294;DHT22;39181;53.440;5.644;2024-01-27T03:28:13;3.80;99.90
53294;DHT22;39181;53.440;5.644;2024-01-27T03:30:38;3.80;99.90
53294;DHT22;39181;53.440;5.644;2024-01-27T03:33:04;4.30;99.90
53294;DHT22;39181;53.440;5.644;2024-01-27T03:35:32;4.30;99.90
53294;DHT22;39181;53.440;5.644;2024-01-27T03:37:57;3.80;99.90
53294;DHT22;39181;53.440;5.644;2024-01-27T03:40:23;3.70;99.90
53294;DHT22;39181;53.440;5.644;2024-01-27T03:42:48;4.30;99.90
53294;DHT22;39181;53.440;5.644;2024-01-27T03:45:14;4.30;99.90
53294;DHT22;39181;53.440;5.644;2024-01-27T03:47:40;3.70;99.90
53294;DHT22;39181;53.440;5.644;2024-01-27T03:50:06;4.20;99.90
53294;DHT22;39181;53.440;5.644;2024-01-27T03:52:32;4.30;99.90
53294;DHT22;39181;53.440;5.644;2024-01-27T03:54:58;4.00;99.90
53294;DHT22;39181;53.440;5.644;2024-01-27T03:57:23;3.80;99.90
53294;DHT22;39181;53.440;5.644;2024-01-27T03:59:49;3.70;99.90
53294;DHT22;39181;53.440;5.644;2024-01-27T04:02:14;4.00;99.90
53294;DHT22;39181;53.440;5.644;2024-01-27T04:04:40;4.30;99.90
53294;DHT22;39181;53.440;5.644;2024-01-27T04:07:05;3.70;99.90
53294;DHT22;39181;53.440;5.644;2024-01-27T04:09:31;4.00;99.90
53294;DHT22;39181;53.440;5.644;2024-01-27T04:11:57;4.00;99.90
53294;DHT22;39181;53.440;5.644;2024-01-27T04:14:22;3.70;99.90
53294;DHT22;39181;53.440;5.644;2024-01-27T04:16:48;3.70;99.90
53294;DHT22;39181;53.440;5.644;2024-01-27T04:19:14;3.60;99.90
53294;DHT22;39181;53.440;5.644;2024-01-27T04:21:39;4.20;99.90
53294;DHT22;39181;53.440;5.644;2024-01-27T04:24:05;3.60;99.90
53294;DHT22;39181;53.440;5.644;2024-01-27T04:26:30;3.80;99.90
53294;DHT22;39181;53.440;5.644;2024-01-27T04:28:56;4.10;99.90
53294;DHT22;39181;53.440;5.644;2024-01-27T04:31:22;4.00;99.90
53294;DHT22;39181;53.440;5.644;2024-01-27T04:33:47;4.10;99.90
53294;DHT22;39181;53.440;5.644;2024-01-27T04:36:13;3.70;99.90
53294;DHT22;39181;53.440;5.644;2024-01-27T04:38:38;3.60;99.90
53294;DHT22;39181;53.440;5.644;2024-01-27T04:41:04;3.60;99.90
53294;DHT22;39181;53.440;5.644;2024-01-27T04:43:29;4.20;99.90
53294;DHT22;39181;53.440;5.644;2024-01-27T04:45:55;3.90;99.90
53294;DHT22;39181;53.440;5.644;2024-01-27T04:48:21;3.60;99.90
53294;DHT22;39181;53.440;5.644;2024-01-27T04:50:47;4.10;99.90
53294;DHT22;39181;53.440;5.644;2024-01-27T04:53:13;3.90;99.90
53294;DHT22;39181;53.440;5.644;2024-01-27T04:55:39;3.50;99.90
53294;DHT22;39181;53.440;5.644;2024-01-27T04:58:06;3.50;99.90
53294;DHT22;39181;53.440;5.644;2024-01-27T05:00:32;3.50;99.90
53294;DHT22;39181;53.440;5.644;2024-01-27T05:02:57;3.50;99.90
53294;DHT22;39181;53.440;5.644;2024-01-27T05:05:28;4.10;99.90
53294;DHT22;39181;53.440;5.644;2024-01-27T05:07:54;4.20;99.90
53294;DHT22;39181;53.440;5.644;2024-01-27T05:10:19;4.20;99.90
53294;DHT22;39181;53.440;5.644;2024-01-27T05:12:46;4.30;99.90
53294;DHT22;39181;53.440;5.644;2024-01-27T05:15:12;4.30;99.90
53294;DHT22;39181;53.440;5.644;2024-01-27T05:17:38;4.10;99.90
53294;DHT22;39181;53.440;5.644;2024-01-27T05:20:08;4.10;99.90
53294;DHT22;39181;53.440;5.644;2024-01-27T05:22:33;3.70;99.90
53294;DHT22;39181;53.440;5.644;2024-01-27T05:24:59;3.70;99.90
53294;DHT22;39181;53.440;5.644;2024-01-27T05:27:25;4.20;99.90
53294;DHT22;39181;53.440;5.644;2024-01-27T05:29:50;3.70;99.90
53294;DHT22;39181;53.440;5.644;2024-01-27T05:32:16;3.80;99.90
53294;DHT22;39181;53.440;5.644;2024-01-27T05:34:41;3.70;99.90
53294;DHT22;39181;53.440;5.644;2024-01-27T05:37:07;3.40;99.90
53294;DHT22;39181;53.440;5.644;2024-01-27T05:39:32;4.20;99.90
53294;DHT22;39181;53.440;5.644;2024-01-27T05:41:59;3.80;99.90
53294;DHT22;39181;53.440;5.644;2024-01-27T05:44:24;4.30;99.90
53294;DHT22;39181;53.440;5.644;2024-01-27T05:46:50;4.40;99.90
53294;DHT22;39181;53.440;5.644;2024-01-27T05:49:16;4.20;99.90
53294;DHT22;39181;53.440;5.644;2024-01-27T05:51:41;3.80;99.90
53294;DHT22;39181;53.440;5.644;2024-01-27T05:54:08;4.10;99.90
53294;DHT22;39181;53.440;5.644;2024-01-27T05:56:35;4.10;99.90
53294;DHT22;39181;53.440;5.644;2024-01-27T05:59:02;3.80;99.90
53294;DHT22;39181;53.440;5.644;2024-01-27T06:01:28;3.80;99.90
53294;DHT22;39181;53.440;5.644;2024-01-27T06:03:53;4.10;99.90
53294;DHT22;39181;53.440;5.644;2024-01-27T06:06:19;4.00;99.90
53294;DHT22;39181;53.440;5.644;2024-01-27T06:08:45;3.70;99.90
53294;DHT22;39181;53.440;5.644;2024-01-27T06:11:10;4.10;99.90
53294;DHT22;39181;53.440;5.644;2024-01-27T06:13:36;3.70;99.90
53294;DHT22;39181;53.440;5.644;2024-01-27T06:16:07;3.70;99.90
53294;DHT22;39181;53.440;5.644;2024-01-27T06:18:34;4.10;99.90
53294;DHT22;39181;53.440;5.644;2024-01-27T06:21:00;4.10;99.90
53294;DHT22;39181;53.440;5.644;2024-01-27T06:23:26;4.20;99.90
53294;DHT22;39181;53.440;5.644;2024-01-27T06:25:52;4.20;99.90
53294;DHT22;39181;53.440;5.644;2024-01-27T06:28:17;3.80;99.90
53294;DHT22;39181;53.440;5.644;2024-01-27T06:30:43;3.60;99.90
53294;DHT22;39181;53.440;5.644;2024-01-27T06:33:08;3.90;99.90
53294;DHT22;39181;53.440;5.644;2024-01-27T06:35:34;3.60;99.90
53294;DHT22;39181;53.440;5.644;2024-01-27T06:38:00;3.70;99.90
53294;DHT22;39181;53.440;5.644;2024-01-27T06:40:25;3.60;99.90
53294;DHT22;39181;53.440;5.644;2024-01-27T06:42:51;4.20;99.90
53294;DHT22;39181;53.440;5.644;2024-01-27T06:45:16;4.10;99.90
53294;DHT22;39181;53.440;5.644;2024-01-27T06:47:42;4.20;99.90
53294;DHT22;39181;53.440;5.644;2024-01-27T06:50:08;3.70;99.90
53294;DHT22;39181;53.440;5.644;2024-01-27T06:52:33;4.30;99.90
53294;DHT22;39181;53.440;5.644;2024-01-27T06:54:59;4.40;99.90
53294;DHT22;39181;53.440;5.644;2024-01-27T06:57:25;4.40;99.90
53294;DHT22;39181;53.440;5.644;2024-01-27T06:59:51;3.80;99.90
53294;DHT22;39181;53.440;5.644;2024-01-27T07:02:27;4.00;99.90
53294;DHT22;39181;53.440;5.644;2024-01-27T07:04:54;4.00;99.90
53294;DHT22;39181;53.440;5.644;2024-01-27T07:07:24;3.80;99.90
53294;DHT22;39181;53.440;5.644;2024-01-27T07:09:51;4.40;99.90
53294;DHT22;39181;53.440;5.644;2024-01-27T07:12:16;3.70;99.90
53294;DHT22;39181;53.440;5.644;2024-01-27T07:14:42;3.80;99.90
53294;DHT22;39181;53.440;5.644;2024-01-27T07:17:07;4.40;99.90
53294;DHT22;39181;53.440;5.644;2024-01-27T07:19:33;4.10;99.90
53294;DHT22;39181;53.440;5.644;2024-01-27T07:21:59;3.80;99.90
53294;DHT22;39181;53.440;5.644;2024-01-27T07:24:29;3.80;99.90
53294;DHT22;39181;53.440;5.644;2024-01-27T07:26:55;4.30;99.90
53294;DHT22;39181;53.440;5.644;2024-01-27T07:29:20;4.20;99.90
53294;DHT22;39181;53.440;5.644;2024-01-27T07:31:46;4.20;99.90
53294;DHT22;39181;53.440;5.644;2024-01-27T07:34:12;4.10;99.90
53294;DHT22;39181;53.440;5.644;2024-01-27T07:36:38;4.30;99.90
53294;DHT22;39181;53.440;5.644;2024-01-27T07:39:04;4.30;99.90
53294;DHT22;39181;53.440;5.644;2024-01-27T07:41:33;4.00;99.90
53294;DHT22;39181;53.440;5.644;2024-01-27T07:44:07;3.80;99.90
53294;DHT22;39181;53.440;5.644;2024-01-27T07:46:33;4.10;99.90
53294;DHT22;39181;53.440;5.644;2024-01-27T07:48:59;4.00;99.90
53294;DHT22;39181;53.440;5.644;2024-01-27T07:51:24;4.40;99.90
53294;DHT22;39181;53.440;5.644;2024-01-27T07:53:50;3.90;99.90
53294;DHT22;39181;53.440;5.644;2024-01-27T07:56:16;4.50;99.90
53294;DHT22;39181;53.440;5.644;2024-01-27T07:58:41;4.10;99.90
53294;DHT22;39181;53.440;5.644;2024-01-27T08:01:07;4.60;99.90
53294;DHT22;39181;53.440;5.644;2024-01-27T08:03:32;4.50;99.90
53294;DHT22;39181;53.440;5.644;2024-01-27T08:06:05;4.30;99.90
53294;DHT22;39181;53.440;5.644;2024-01-27T08:08:30;4.60;99.90
53294;DHT22;39181;53.440;5.644;2024-01-27T08:10:56;4.60;99.90
53294;DHT22;39181;53.440;5.644;2024-01-27T08:13:25;4.10;99.90
53294;DHT22;39181;53.440;5.644;2024-01-27T08:15:50;4.10;99.90
53294;DHT22;39181;53.440;5.644;2024-01-27T08:18:16;4.70;99.90
53294;DHT22;39181;53.440;5.644;2024-01-27T08:20:41;4.50;99.90
53294;DHT22;39181;53.440;5.644;2024-01-27T08:23:08;4.70;99.90
53294;DHT22;39181;53.440;5.644;2024-01-27T08:25:34;4.70;99.90
53294;DHT22;39181;53.440;5.644;2024-01-27T08:28:00;4.80;99.90
53294;DHT22;39181;53.440;5.644;2024-01-27T08:30:25;4.40;99.90
53294;DHT22;39181;53.440;5.644;2024-01-27T08:32:51;4.80;99.90
53294;DHT22;39181;53.440;5.644;2024-01-27T08:35:18;4.70;99.90
53294;DHT22;39181;53.440;5.644;2024-01-27T08:37:43;4.60;99.90
53294;DHT22;39181;53.440;5.644;2024-01-27T08:40:09;4.70;99.90
53294;DHT22;39181;53.440;5.644;2024-01-27T08:42:35;5.00;99.90
53294;DHT22;39181;53.440;5.644;2024-01-27T08:45:00;4.50;99.90
53294;DHT22;39181;53.440;5.644;2024-01-27T08:47:26;5.00;99.90
53294;DHT22;39181;53.440;5.644;2024-01-27T08:49:51;4.80;99.90
53294;DHT22;39181;53.440;5.644;2024-01-27T08:52:17;5.00;99.90
53294;DHT22;39181;53.440;5.644;2024-01-27T08:54:43;4.70;99.90
53294;DHT22;39181;53.440;5.644;2024-01-27T08:57:08;5.10;99.90
53294;DHT22;39181;53.440;5.644;2024-01-27T08:59:34;5.20;99.90
53294;DHT22;39181;53.440;5.644;2024-01-27T09:02:01;4.60;99.90
53294;DHT22;39181;53.440;5.644;2024-01-27T09:04:28;5.00;99.90
53294;DHT22;39181;53.440;5.644;2024-01-27T09:06:53;5.20;99.90
53294;DHT22;39181;53.440;5.644;2024-01-27T09:09:19;4.90;99.90
53294;DHT22;39181;53.440;5.644;2024-01-27T09:11:44;4.80;99.90
53294;DHT22;39181;53.440;5.644;2024-01-27T09:14:11;5.00;99.90
53294;DHT22;39181;53.440;5.644;2024-01-27T09:16:36;4.90;99.90
53294;DHT22;39181;53.440;5.644;2024-01-27T09:19:02;4.90;99.90
53294;DHT22;39181;53.440;5.644;2024-01-27T09:21:28;5.50;99.90
53294;DHT22;39181;53.440;5.644;2024-01-27T09:23:55;5.50;99.90
53294;DHT22;39181;53.440;5.644;2024-01-27T09:26:42;5.00;99.90
53294;DHT22;39181;53.440;5.644;2024-01-27T09:29:08;5.50;99.90
53294;DHT22;39181;53.440;5.644;2024-01-27T09:31:34;5.60;99.90
53294;DHT22;39181;53.440;5.644;2024-01-27T09:34:00;5.10;99.90
53294;DHT22;39181;53.440;5.644;2024-01-27T09:36:26;5.70;99.90
53294;DHT22;39181;53.440;5.644;2024-01-27T09:38:52;5.20;99.90
53294;DHT22;39181;53.440;5.644;2024-01-27T09:41:18;5.70;99.90
53294;DHT22;39181;53.440;5.644;2024-01-27T09:43:45;5.80;99.90
53294;DHT22;39181;53.440;5.644;2024-01-27T09:46:11;5.80;99.90
53294;DHT22;39181;53.440;5.644;2024-01-27T09:48:37;5.60;99.90
53294;DHT22;39181;53.440;5.644;2024-01-27T09:51:04;5.40;99.90
53294;DHT22;39181;53.440;5.644;2024-01-27T09:53:30;5.50;99.90
53294;DHT22;39181;53.440;5.644;2024-01-27T09:56:01;5.90;99.90
53294;DHT22;39181;53.440;5.644;2024-01-27T09:58:30;6.00;99.90
53294;DHT22;39181;53.440;5.644;2024-01-27T10:01:00;5.70;99.90
53294;DHT22;39181;53.440;5.644;2024-01-27T10:03:27;6.00;99.90
53294;DHT22;39181;53.440;5.644;2024-01-27T10:05:54;5.80;99.90
53294;DHT22;39181;53.440;5.644;2024-01-27T10:08:21;6.10;99.90
53294;DHT22;39181;53.440;5.644;2024-01-27T10:10:49;6.10;99.90
53294;DHT22;39181;53.440;5.644;2024-01-27T10:13:18;6.00;99.90
53294;DHT22;39181;53.440;5.644;2024-01-27T10:15:43;6.10;99.90
53294;DHT22;39181;53.440;5.644;2024-01-27T10:18:09;6.10;99.90
53294;DHT22;39181;53.440;5.644;2024-01-27T10:20:40;5.90;99.90
53294;DHT22;39181;53.440;5.644;2024-01-27T10:23:14;6.20;99.90
53294;DHT22;39181;53.440;5.644;2024-01-27T10:25:41;6.00;99.90
53294;DHT22;39181;53.440;5.644;2024-01-27T10:28:07;5.90;99.90
53294;DHT22;39181;53.440;5.644;2024-01-27T10:30:34;6.00;99.90
53294;DHT22;39181;53.440;5.644;2024-01-27T10:33:00;5.80;99.90
53294;DHT22;39181;53.440;5.644;2024-01-27T10:35:26;5.90;99.90
53294;DHT22;39181;53.440;5.644;2024-01-27T10:37:55;5.90;99.90
53294;DHT22;39181;53.440;5.644;2024-01-27T10:40:22;6.20;99.90
53294;DHT22;39181;53.440;5.644;2024-01-27T10:43:08;6.30;99.90
53294;DHT22;39181;53.440;5.644;2024-01-27T10:45:39;5.90;99.90
53294;DHT22;39181;53.440;5.644;2024-01-27T10:48:06;6.00;99.90
53294;DHT22;39181;53.440;5.644;2024-01-27T10:50:37;5.90;99.90
53294;DHT22;39181;53.440;5.644;2024-01-27T10:53:04;6.20;99.90
53294;DHT22;39181;53.440;5.644;2024-01-27T10:55:33;6.10;99.90
53294;DHT22;39181;53.440;5.644;2024-01-27T10:58:01;6.00;99.90
53294;DHT22;39181;53.440;5.644;2024-01-27T11:00:30;6.10;99.90
53294;DHT22;39181;53.440;5.644;2024-01-27T11:03:00;6.40;99.90
53294;DHT22;39181;53.440;5.644;2024-01-27T11:05:27;6.10;99.90
53294;DHT22;39181;53.440;5.644;2024-01-27T11:07:55;6.10;99.90
53294;DHT22;39181;53.440;5.644;2024-01-27T11:10:22;6.10;99.90
53294;DHT22;39181;53.440;5.644;2024-01-27T11:12:49;6.20;99.90
53294;DHT22;39181;53.440;5.644;2024-01-27T11:15:15;6.50;99.90
53294;DHT22;39181;53.440;5.644;2024-01-27T11:17:41;6.50;99.90
53294;DHT22;39181;53.440;5.644;2024-01-27T11:20:10;6.30;99.90
53294;DHT22;39181;53.440;5.644;2024-01-27T11:22:41;6.70;99.90
53294;DHT22;39181;53.440;5.644;2024-01-27T11:27:39;6.40;99.90
53294;DHT22;39181;53.440;5.644;2024-01-27T11:30:07;6.80;99.90
53294;DHT22;39181;53.440;5.644;2024-01-27T11:32:49;6.80;99.90
53294;DHT22;39181;53.440;5.644;2024-01-27T11:35:17;7.00;99.90
53294;DHT22;39181;53.440;5.644;2024-01-27T11:37:43;7.00;99.90
53294;DHT22;39181;53.440;5.644;2024-01-27T11:40:08;6.60;99.90
53294;DHT22;39181;53.440;5.644;2024-01-27T11:42:34;7.10;99.90
53294;DHT22;39181;53.440;5.644;2024-01-27T11:45:01;6.80;99.90
53294;DHT22;39181;53.440;5.644;2024-01-27T11:47:30;6.80;99.90
53294;DHT22;39181;53.440;5.644;2024-01-27T11:49:56;7.20;99.90
53294;DHT22;39181;53.440;5.644;2024-01-27T11:52:27;7.00;99.90
53294;DHT22;39181;53.440;5.644;2024-01-27T11:54:59;7.10;99.90
53294;DHT22;39181;53.440;5.644;2024-01-27T11:57:25;6.90;99.90
53294;DHT22;39181;53.440;5.644;2024-01-27T11:59:51;7.20;99.90
53294;DHT22;39181;53.440;5.644;2024-01-27T12:02:20;7.00;99.90
53294;DHT22;39181;53.440;5.644;2024-01-27T12:04:47;7.40;99.90
53294;DHT22;39181;53.440;5.644;2024-01-27T12:07:14;7.10;99.90
53294;DHT22;39181;53.440;5.644;2024-01-27T12:09:40;7.20;99.90
53294;DHT22;39181;53.440;5.644;2024-01-27T12:12:06;7.20;99.90
53294;DHT22;39181;53.440;5.644;2024-01-27T12:14:47;7.20;99.90
53294;DHT22;39181;53.440;5.644;2024-01-27T12:17:13;7.60;99.90
53294;DHT22;39181;53.440;5.644;2024-01-27T12:19:45;7.30;99.90
53294;DHT22;39181;53.440;5.644;2024-01-27T12:22:22;7.60;99.90
53294;DHT22;39181;53.440;5.644;2024-01-27T12:24:48;7.40;99.90
53294;DHT22;39181;53.440;5.644;2024-01-27T12:27:13;7.60;99.90
53294;DHT22;39181;53.440;5.644;2024-01-27T12:29:41;7.80;99.90
53294;DHT22;39181;53.440;5.644;2024-01-27T12:32:07;7.70;99.90
53294;DHT22;39181;53.440;5.644;2024-01-27T12:34:33;7.90;99.90
53294;DHT22;39181;53.440;5.644;2024-01-27T12:36:58;7.60;99.90
53294;DHT22;39181;53.440;5.644;2024-01-27T12:39:25;7.90;99.90
53294;DHT22;39181;53.440;5.644;2024-01-27T12:41:51;7.90;99.90
53294;DHT22;39181;53.440;5.644;2024-01-27T12:44:17;7.70;99.90
53294;DHT22;39181;53.440;5.644;2024-01-27T12:46:45;7.50;99.90
53294;DHT22;39181;53.440;5.644;2024-01-27T12:49:11;7.60;99.90
53294;DHT22;39181;53.440;5.644;2024-01-27T12:51:37;7.90;99.90
53294;DHT22;39181;53.440;5.644;2024-01-27T12:54:03;7.70;99.90
53294;DHT22;39181;53.440;5.644;2024-01-27T12:56:28;7.70;99.90
53294;DHT22;39181;53.440;5.644;2024-01-27T12:58:54;8.00;99.90
53294;DHT22;39181;53.440;5.644;2024-01-27T13:01:23;7.70;99.90
53294;DHT22;39181;53.440;5.644;2024-01-27T13:03:48;7.70;99.90
53294;DHT22;39181;53.440;5.644;2024-01-27T13:06:15;8.10;99.90
53294;DHT22;39181;53.440;5.644;2024-01-27T13:08:44;7.70;99.90
53294;DHT22;39181;53.440;5.644;2024-01-27T13:11:13;7.90;99.90
53294;DHT22;39181;53.440;5.644;2024-01-27T13:13:40;7.80;99.90
53294;DHT22;39181;53.440;5.644;2024-01-27T13:16:06;7.70;99.90
53294;DHT22;39181;53.440;5.644;2024-01-27T13:18:32;7.60;99.90
53294;DHT22;39181;53.440;5.644;2024-01-27T13:20:58;7.70;99.90
53294;DHT22;39181;53.440;5.644;2024-01-27T13:23:24;8.00;99.90
53294;DHT22;39181;53.440;5.644;2024-01-27T13:25:49;8.10;99.90
53294;DHT22;39181;53.440;5.644;2024-01-27T13:28:17;8.10;99.90
53294;DHT22;39181;53.440;5.644;2024-01-27T13:30:43;7.70;99.90
53294;DHT22;39181;53.440;5.644;2024-01-27T13:33:08;8.10;99.90
53294;DHT22;39181;53.440;5.644;2024-01-27T13:35:34;7.80;99.90
53294;DHT22;39181;53.440;5.644;2024-01-27T13:38:00;7.90;99.90
53294;DHT22;39181;53.440;5.644;2024-01-27T13:40:25;7.70;99.90
53294;DHT22;39181;53.440;5.644;2024-01-27T13:42:52;8.00;99.90
53294;DHT22;39181;53.440;5.644;2024-01-27T13:45:18;7.60;99.90
53294;DHT22;39181;53.440;5.644;2024-01-27T13:47:44;7.90;99.90
53294;DHT22;39181;53.440;5.644;2024-01-27T13:50:11;7.90;99.90
53294;DHT22;39181;53.440;5.644;2024-01-27T13:52:36;7.90;99.90
53294;DHT22;39181;53.440;5.644;2024-01-27T13:55:02;7.30;99.90
53294;DHT22;39181;53.440;5.644;2024-01-27T13:57:28;7.50;99.90
53294;DHT22;39181;53.440;5.644;2024-01-27T13:59:54;7.60;99.90
53294;DHT22;39181;53.440;5.644;2024-01-27T14:02:20;7.10;99.90
53294;DHT22;39181;53.440;5.644;2024-01-27T14:04:46;7.50;99.90
53294;DHT22;39181;53.440;5.644;2024-01-27T14:07:11;7.40;99.90
53294;DHT22;39181;53.440;5.644;2024-01-27T14:09:37;7.50;99.90
53294;DHT22;39181;53.440;5.644;2024-01-27T14:12:03;7.00;99.90
53294;DHT22;39181;53.440;5.644;2024-01-27T14:14:28;7.50;99.90
53294;DHT22;39181;53.440;5.644;2024-01-27T14:16:54;7.00;99.90
53294;DHT22;39181;53.440;5.644;2024-01-27T14:19:19;7.60;99.90
53294;DHT22;39181;53.440;5.644;2024-01-27T14:21:45;7.50;99.90
53294;DHT22;39181;53.440;5.644;2024-01-27T14:24:11;7.60;99.90
53294;DHT22;39181;53.440;5.644;2024-01-27T14:26:39;7.50;99.90
53294;DHT22;39181;53.440;5.644;2024-01-27T14:29:05;7.20;99.90
53294;DHT22;39181;53.440;5.644;2024-01-27T14:31:32;7.10;99.90
53294;DHT22;39181;53.440;5.644;2024-01-27T14:33:57;7.30;99.90
53294;DHT22;39181;53.440;5.644;2024-01-27T14:36:23;7.00;99.90
53294;DHT22;39181;53.440;5.644;2024-01-27T14:38:50;7.00;99.90
53294;DHT22;39181;53.440;5.644;2024-01-27T14:41:15;7.10;99.90
53294;DHT22;39181;53.440;5.644;2024-01-27T14:43:41;7.20;99.90
53294;DHT22;39181;53.440;5.644;2024-01-27T14:46:07;7.00;99.90
53294;DHT22;39181;53.440;5.644;2024-01-27T14:48:33;7.30;99.90
53294;DHT22;39181;53.440;5.644;2024-01-27T14:50:59;6.70;99.90
53294;DHT22;39181;53.440;5.644;2024-01-27T14:53:25;7.10;99.90
53294;DHT22;39181;53.440;5.644;2024-01-27T14:55:51;6.70;99.90
53294;DHT22;39181;53.440;5.644;2024-01-27T14:58:16;7.10;99.90
53294;DHT22;39181;53.440;5.644;2024-01-27T15:00:42;7.00;99.90
53294;DHT22;39181;53.440;5.644;2024-01-27T15:03:09;6.80;99.90
53294;DHT22;39181;53.440;5.644;2024-01-27T15:05:35;6.60;99.90
53294;DHT22;39181;53.440;5.644;2024-01-27T15:08:03;6.30;99.90
53294;DHT22;39181;53.440;5.644;2024-01-27T15:10:29;6.80;99.90
53294;DHT22;39181;53.440;5.644;2024-01-27T15:12:55;6.20;99.90
53294;DHT22;39181;53.440;5.644;2024-01-27T15:15:20;6.50;99.90
53294;DHT22;39181;53.440;5.644;2024-01-27T15:17:46;6.30;99.90
53294;DHT22;39181;53.440;5.644;2024-01-27T15:20:12;6.30;99.90
53294;DHT22;39181;53.440;5.644;2024-01-27T15:22:39;6.00;99.90
53294;DHT22;39181;53.440;5.644;2024-01-27T15:25:06;6.40;99.90
53294;DHT22;39181;53.440;5.644;2024-01-27T15:27:31;5.80;99.90
53294;DHT22;39181;53.440;5.644;2024-01-27T15:30:00;6.20;99.90
53294;DHT22;39181;53.440;5.644;2024-01-27T15:32:25;6.10;99.90
53294;DHT22;39181;53.440;5.644;2024-01-27T15:34:53;5.70;99.90
53294;DHT22;39181;53.440;5.644;2024-01-27T15:37:18;5.90;99.90
53294;DHT22;39181;53.440;5.644;2024-01-27T15:39:44;5.60;99.90
53294;DHT22;39181;53.440;5.644;2024-01-27T15:42:10;5.80;99.90